createdAt,value
2023-03-03T02:40:41.871Z,164.63
2023-03-03T02:41:41.810Z,165.96
2023-03-03T02:42:41.750Z,164.42
2023-03-03T02:43:41.698Z,163.12
2023-03-03T02:44:41.641Z,162.93
2023-03-03T02:45:41.622Z,164.32
2023-03-03T02:46:41.555Z,164.40
2023-03-03T02:47:41.525Z,163.33
2023-03-03T02:48:41.498Z,163.51
2023-03-03T02:49:41.447Z,163.29
2023-03-03T02:50:41.413Z,163.68
2023-03-03T02:51:41.347Z,162.99
2023-03-03T02:52:41.298Z,161.20
2023-03-03T02:53:41.257Z,163.65
2023-03-03T02:54:41.225Z,164.53
2023-03-03T02:55:41.194Z,164.14
2023-03-03T02:56:41.143Z,162.16
2023-03-03T02:57:41.073Z,162.00
2023-03-03T02:58:41.028Z,161.21
2023-03-03T02:59:41.005Z,163.20
2023-03-03T03:00:40.988Z,162.52
2023-03-03T03:01:40.853Z,162.58
2023-03-03T03:02:40.814Z,160.85
2023-03-03T03:03:40.746Z,161.35
2023-03-03T03:04:40.861Z,163.39
2023-03-03T03:05:40.650Z,162.78
2023-03-03T03:06:40.597Z,161.17
2023-03-03T03:07:40.543Z,162.48
2023-03-03T03:08:40.501Z,162.18
2023-03-03T03:09:40.445Z,161.05
2023-03-03T03:10:40.410Z,160.20
2023-03-03T03:11:40.374Z,162.36
2023-03-03T03:12:40.313Z,159.11
2023-03-03T03:13:40.248Z,161.11
2023-03-03T03:14:40.166Z,162.29
2023-03-03T03:15:40.123Z,161.92
2023-03-03T03:16:40.093Z,160.73
2023-03-03T03:17:39.969Z,160.76
2023-03-03T03:18:39.884Z,161.98
2023-03-03T03:19:39.844Z,160.70
2023-03-03T03:20:39.804Z,159.23
2023-03-03T03:21:39.760Z,160.56
2023-03-03T03:22:39.719Z,160.06
2023-03-03T03:23:39.659Z,161.02
2023-03-03T03:24:39.591Z,161.93
2023-03-03T03:25:39.532Z,160.60
2023-03-03T03:26:39.458Z,158.57
2023-03-03T03:27:39.392Z,159.63
2023-03-03T03:28:39.405Z,160.12
2023-03-03T03:29:39.301Z,159.68
2023-03-03T03:30:39.282Z,159.59
2023-03-03T03:31:39.227Z,159.69
2023-03-03T03:32:39.171Z,160.80
2023-03-03T03:33:39.124Z,159.91
2023-03-03T03:34:39.071Z,159.05
2023-03-03T03:35:39.039Z,159.27
2023-03-03T03:36:38.971Z,158.59
2023-03-03T03:37:38.943Z,159.25
2023-03-03T03:38:38.925Z,159.08
2023-03-03T03:39:38.888Z,159.40
2023-03-03T03:40:38.850Z,158.93
2023-03-03T03:41:38.823Z,158.26
2023-03-03T03:42:38.946Z,159.67
2023-03-03T03:43:38.790Z,159.34
2023-03-03T03:44:38.989Z,159.66
2023-03-03T03:45:38.705Z,158.30
2023-03-03T03:46:38.642Z,158.78
2023-03-03T03:47:38.578Z,160.25
2023-03-03T03:48:38.511Z,158.17
2023-03-03T03:49:38.456Z,160.21
2023-03-03T03:50:38.403Z,158.61
2023-03-03T03:51:38.356Z,158.19
2023-03-03T03:52:38.333Z,158.05
2023-03-03T03:53:38.286Z,158.70
2023-03-03T03:54:38.233Z,158.03
2023-03-03T03:55:38.163Z,158.59
2023-03-03T03:56:38.100Z,157.90
2023-03-03T03:57:38.070Z,158.48
2023-03-03T03:58:38.017Z,158.44
2023-03-03T03:59:37.969Z,157.25
2023-03-03T04:00:37.936Z,158.79
2023-03-03T04:01:37.879Z,158.61
2023-03-03T04:02:37.976Z,158.53
2023-03-03T04:03:37.764Z,157.86
2023-03-03T04:04:37.743Z,158.54
2023-03-03T06:09:30.723Z,150.10
2023-03-03T06:10:30.664Z,149.22
2023-03-03T06:11:30.608Z,149.15
2023-03-03T06:12:30.543Z,151.39
2023-03-03T06:13:30.483Z,150.12
2023-03-03T06:14:30.422Z,148.76
2023-03-03T06:15:30.389Z,150.95
2023-03-03T06:16:30.345Z,151.13
2023-03-03T06:17:30.278Z,149.97
2023-03-03T06:18:30.196Z,149.75
2023-03-03T06:19:30.134Z,148.77
2023-03-03T06:20:30.070Z,149.81
2023-03-03T06:21:30.024Z,147.03
2023-03-03T06:22:29.936Z,145.89
2023-03-03T06:23:29.877Z,143.28
2023-03-03T06:24:29.899Z,139.17
2023-03-03T06:25:29.761Z,139.55
2023-03-03T06:26:29.720Z,137.72
2023-03-03T06:27:29.636Z,134.89
2023-03-03T06:28:29.590Z,131.63
2023-03-03T06:29:29.536Z,130.22
2023-03-03T06:30:29.492Z,152.29
2023-03-03T06:31:30.200Z,164.40
2023-03-03T06:32:29.409Z,163.70
2023-03-03T06:33:29.309Z,162.22
2023-03-03T06:34:29.251Z,157.80
2023-03-03T06:35:29.206Z,159.24
2023-03-03T06:36:29.698Z,155.68
2023-03-03T06:37:29.087Z,153.77
2023-03-03T06:38:28.994Z,154.12
2023-03-03T06:39:28.936Z,148.58
2023-03-03T06:40:28.868Z,149.39
2023-03-03T06:41:28.800Z,149.94
2023-03-03T06:42:28.727Z,150.21
2023-03-03T06:43:28.662Z,147.59
2023-03-03T06:44:29.033Z,147.30
2023-03-03T06:45:28.565Z,146.69
2023-03-03T06:46:28.500Z,147.69
2023-03-03T06:47:28.410Z,144.25
2023-03-03T06:48:28.346Z,145.29
2023-03-03T06:49:28.284Z,142.11
2023-03-03T06:50:28.274Z,145.77
2023-03-03T06:51:28.164Z,141.93
2023-03-03T06:52:28.095Z,142.80
2023-03-03T06:53:28.030Z,141.15
2023-03-03T06:54:30.604Z,140.22
2023-03-03T06:55:28.630Z,143.57
2023-03-03T06:56:27.733Z,144.54
2023-03-03T06:57:27.791Z,140.49
2023-03-03T07:28:24.245Z,141.09
2023-03-03T08:03:21.568Z,242.80
2023-03-03T08:04:21.516Z,247.48
2023-03-03T08:05:21.568Z,250.15
2023-03-03T08:06:21.361Z,249.41
2023-03-03T08:07:21.245Z,250.00
2023-03-03T08:08:21.134Z,248.77
2023-03-03T08:09:21.034Z,250.00
2023-03-03T08:10:20.911Z,248.15
2023-03-03T08:11:20.845Z,249.58
2023-03-03T08:12:20.727Z,248.68
2023-03-03T08:13:20.613Z,250.00
2023-03-03T08:14:21.188Z,249.17
2023-03-03T08:15:20.395Z,250.00
2023-03-03T08:16:21.333Z,249.73
2023-03-03T08:17:20.163Z,249.33
2023-03-03T08:18:20.033Z,248.94
2023-03-03T08:19:19.911Z,250.00
2023-03-03T08:20:19.824Z,248.75
2023-03-03T08:21:19.750Z,248.32
2023-03-03T08:22:19.630Z,248.60
2023-03-03T08:23:19.528Z,248.68
2023-03-03T08:24:19.397Z,248.70
2023-03-03T08:25:19.280Z,247.32
2023-03-03T08:26:19.193Z,247.89
2023-03-03T08:27:19.134Z,248.08
2023-03-03T08:28:19.742Z,248.07
2023-03-03T08:29:18.848Z,246.22
2023-03-03T08:30:18.730Z,245.11
2023-03-03T08:31:31.145Z,247.34
2023-03-03T08:32:19.597Z,247.43
2023-03-03T08:33:18.373Z,246.59
2023-03-03T08:34:18.258Z,246.59
2023-03-03T08:35:18.138Z,247.10
2023-03-03T08:36:18.015Z,244.99
2023-03-03T08:37:17.890Z,245.24
2023-03-03T08:38:17.770Z,244.09
2023-03-03T10:11:09.453Z,166.19
2023-03-03T10:12:09.430Z,167.37
2023-03-03T10:13:09.312Z,169.52
2023-03-03T10:14:09.272Z,169.35
2023-03-03T10:15:09.078Z,169.94
2023-03-03T10:16:08.984Z,170.07
2023-03-03T10:17:08.862Z,171.69
2023-03-03T10:18:08.788Z,172.75
2023-03-03T10:19:08.764Z,173.29
2023-03-03T10:20:08.745Z,173.69
2023-03-03T10:21:08.621Z,171.55
2023-03-03T10:22:08.502Z,168.41
2023-03-03T10:23:08.414Z,167.30
2023-03-03T10:24:08.270Z,164.79
2023-03-03T10:25:08.163Z,162.79
2023-03-03T10:26:08.031Z,163.80
2023-03-03T10:27:13.870Z,160.79
2023-03-03T10:28:08.789Z,160.94
2023-03-03T11:15:03.696Z,31.68
2023-03-03T11:25:03.172Z,91.28
2023-03-03T11:26:03.082Z,96.03
2023-03-03T11:27:03.540Z,96.59
2023-03-03T11:28:02.934Z,108.24
2023-03-03T11:29:02.845Z,114.67
2023-03-03T11:30:02.772Z,113.69
2023-03-03T11:31:03.273Z,118.60
2023-03-03T11:33:02.503Z,122.75
2023-03-03T11:34:02.431Z,122.42
2023-03-03T12:07:03.934Z,93.25
2023-03-03T12:08:58.857Z,95.04
2023-03-03T12:09:58.726Z,96.13
2023-03-03T12:10:58.619Z,99.11
2023-03-03T12:11:58.475Z,99.99
2023-03-03T12:12:58.351Z,101.30
2023-03-03T12:13:58.238Z,102.54
2023-03-03T12:14:58.106Z,101.39
2023-03-03T12:15:58.004Z,102.64
2023-03-03T12:16:57.866Z,107.97
2023-03-03T12:17:57.786Z,105.41
2023-03-03T12:20:57.401Z,110.46
2023-03-03T12:21:57.270Z,109.63
2023-03-03T12:23:06.520Z,111.61
2023-03-03T12:23:58.061Z,111.70
2023-03-03T12:24:56.932Z,112.01
2023-03-03T12:25:56.819Z,112.83
2023-03-03T12:26:56.703Z,114.11
2023-03-03T12:27:56.641Z,115.97
2023-03-03T12:28:56.498Z,115.57
2023-03-03T12:29:56.351Z,115.77
2023-03-03T12:30:56.274Z,115.83
2023-03-03T12:31:56.149Z,115.42
2023-03-03T12:32:56.000Z,117.15
2023-03-03T12:33:55.891Z,117.71
2023-03-03T12:34:55.777Z,119.57
2023-03-03T12:35:55.726Z,118.17
2023-03-03T12:36:55.542Z,119.07
2023-03-03T12:37:55.454Z,119.82
2023-03-03T12:38:55.391Z,119.67
2023-03-03T12:39:55.323Z,123.09
2023-03-03T12:40:55.239Z,120.60
2023-03-03T12:41:55.168Z,121.88
2023-03-03T12:42:55.089Z,120.73
2023-03-03T12:43:55.018Z,123.12
2023-03-03T12:44:54.942Z,123.01
2023-03-03T12:45:54.868Z,123.55
2023-03-03T12:46:54.810Z,122.53
2023-03-03T12:47:54.745Z,121.73
2023-03-03T12:48:54.667Z,122.56
2023-03-03T12:50:06.452Z,124.25
2023-03-03T12:50:55.486Z,124.41
2023-03-03T12:51:54.353Z,124.80
2023-03-03T12:52:54.245Z,124.80
2023-03-03T12:53:54.139Z,125.36
2023-03-03T12:54:54.004Z,124.65
2023-03-03T12:55:53.903Z,124.44
2023-03-03T12:56:53.779Z,125.47
2023-03-03T12:57:53.669Z,125.19
2023-03-03T12:58:53.552Z,125.82
2023-03-03T12:59:53.417Z,125.52
2023-03-03T13:00:53.373Z,126.00
2023-03-03T13:01:53.290Z,127.28
2023-03-03T13:02:53.239Z,125.90
2023-03-03T13:03:56.199Z,127.53
2023-03-03T13:04:53.069Z,128.82
2023-03-03T13:05:52.934Z,128.10
2023-03-03T13:06:52.836Z,126.20
2023-03-03T13:07:52.767Z,124.88
2023-03-03T13:08:52.577Z,123.10
2023-03-03T13:09:52.452Z,122.50
2023-03-03T13:10:52.325Z,120.18
2023-03-03T13:11:54.008Z,119.16
2023-03-03T13:12:52.093Z,120.30
2023-03-03T13:13:51.986Z,118.35
2023-03-03T13:14:51.879Z,117.88
2023-03-03T13:15:55.830Z,117.50
2023-03-03T13:16:51.676Z,117.66
2023-03-03T13:17:51.513Z,117.76
2023-03-03T13:18:51.399Z,117.53
2023-03-03T13:19:51.280Z,117.16
2023-03-03T13:20:51.158Z,114.78
2023-03-03T13:21:51.033Z,116.29
2023-03-03T13:22:50.921Z,116.72
2023-03-03T13:23:50.840Z,115.12
2023-03-03T13:24:50.689Z,113.96
2023-03-03T13:25:50.628Z,113.85
2023-03-03T13:26:50.440Z,112.69
2023-03-03T13:32:49.736Z,109.99
2023-03-03T13:43:48.503Z,111.74
2023-03-03T13:44:48.420Z,110.01
2023-03-03T13:45:48.332Z,110.77
2023-03-03T13:46:48.263Z,111.53
2023-03-03T13:47:48.169Z,112.67
2023-03-03T13:48:48.058Z,111.74
2023-03-03T13:49:48.045Z,112.11
2023-03-03T13:50:47.855Z,110.62
2023-03-03T13:51:47.771Z,111.93
2023-03-03T13:59:47.865Z,111.52
2023-03-03T15:09:42.055Z,108.77
2023-03-03T15:10:39.916Z,110.82
2023-03-03T15:11:39.775Z,109.81
2023-03-03T15:12:39.650Z,108.37
2023-03-03T15:13:39.528Z,109.31
2023-03-03T15:14:39.414Z,108.60
2023-03-03T15:15:39.405Z,110.68
2023-03-03T15:16:39.217Z,111.88
2023-03-03T15:17:39.077Z,110.34
2023-03-03T15:18:38.957Z,109.04
2023-03-03T15:19:38.840Z,109.53
2023-03-03T15:20:38.791Z,109.46
2023-03-03T15:21:38.608Z,108.27
2023-03-03T15:22:38.492Z,109.51
2023-03-03T15:23:38.376Z,109.13
2023-03-03T15:24:38.333Z,107.29
2023-03-03T15:25:43.981Z,108.80
2023-03-03T15:26:39.035Z,109.08
2023-03-03T15:27:37.913Z,109.28
2023-03-03T15:28:37.816Z,109.90
2023-03-03T17:17:29.886Z,104.70
2023-03-03T17:22:29.664Z,108.86
2023-03-03T17:23:29.612Z,107.96
2023-03-03T17:24:29.574Z,105.54
2023-03-03T17:25:29.510Z,107.04
2023-03-03T17:26:29.464Z,107.01
2023-03-03T17:27:29.414Z,106.31
2023-03-03T17:28:29.359Z,106.69
2023-03-03T17:29:29.333Z,106.42
2023-03-03T17:30:29.276Z,104.64
2023-03-03T17:31:29.253Z,107.52
2023-03-03T17:32:29.216Z,108.13
2023-03-03T17:33:29.138Z,106.36
2023-03-03T17:34:29.091Z,106.25
2023-03-03T17:35:29.169Z,106.40
2023-03-03T17:36:29.029Z,107.84
2023-03-03T17:37:28.969Z,107.20
2023-03-03T17:38:28.928Z,105.13
2023-03-03T17:39:28.878Z,107.01
2023-03-03T17:40:28.832Z,106.85
2023-03-03T17:41:28.782Z,105.83
2023-03-03T17:42:28.739Z,105.90
2023-03-03T17:43:28.706Z,102.64
2023-03-03T17:44:28.667Z,105.00
2023-03-03T17:45:28.622Z,104.68
2023-03-03T17:46:28.577Z,106.37
2023-03-03T17:47:28.514Z,106.68
2023-03-03T17:48:28.476Z,105.15
2023-03-03T17:49:28.420Z,106.07
2023-03-03T17:50:28.377Z,107.97
2023-03-03T17:51:28.325Z,106.08
2023-03-03T17:52:28.289Z,103.02
2023-03-03T17:53:28.248Z,105.96
2023-03-03T17:54:28.212Z,106.81
2023-03-03T17:55:28.178Z,103.74
2023-03-03T17:56:28.114Z,103.54
2023-03-03T17:57:28.079Z,106.14
2023-03-03T17:58:28.043Z,105.38
2023-03-03T17:59:27.998Z,104.77
2023-03-03T18:00:27.943Z,104.13
2023-03-03T18:01:27.911Z,104.34
2023-03-03T18:02:27.864Z,106.96
2023-03-03T18:03:27.910Z,106.47
2023-03-03T18:04:27.885Z,102.95
2023-03-03T18:05:27.785Z,106.18
2023-03-03T18:06:27.740Z,105.69
2023-03-03T20:12:19.998Z,100.25
2023-03-03T20:26:19.005Z,97.98
2023-03-03T20:27:18.941Z,99.32
2023-03-03T20:28:18.867Z,100.25
2023-03-03T20:29:18.825Z,98.55
2023-03-03T20:30:18.742Z,97.27
2023-03-03T20:31:18.710Z,100.91
2023-03-03T20:32:18.605Z,96.44
2023-03-03T20:33:18.515Z,100.98
2023-03-03T20:34:18.428Z,98.88
2023-03-03T20:35:18.415Z,100.47
2023-03-03T20:36:18.292Z,99.63
2023-03-03T20:37:18.267Z,96.13
2023-03-03T20:38:18.175Z,98.09
2023-03-03T20:39:18.078Z,100.52
2023-03-03T20:40:18.016Z,98.62
2023-03-03T20:41:17.980Z,98.91
2023-03-03T20:42:17.906Z,97.78
2023-03-03T20:43:17.841Z,99.50
2023-03-03T20:44:17.769Z,97.03
2023-03-03T20:45:17.735Z,95.94
2023-03-03T22:03:12.999Z,93.13
2023-03-03T22:04:12.928Z,89.75
2023-03-03T22:05:12.847Z,92.41
2023-03-03T22:06:12.792Z,90.80
2023-03-03T22:07:12.699Z,92.52
2023-03-03T22:08:12.640Z,91.36
2023-03-03T22:09:12.566Z,91.31
2023-03-03T22:10:12.520Z,91.34
2023-03-03T22:11:14.176Z,91.58
2023-03-03T22:12:12.334Z,95.45
2023-03-03T22:13:12.232Z,88.48
2023-03-03T22:14:12.123Z,90.56
2023-03-03T22:15:12.031Z,90.13
2023-03-03T22:16:11.982Z,91.05
2023-03-03T22:17:11.839Z,87.36
2023-03-03T22:18:11.730Z,93.11
2023-03-03T22:19:11.634Z,90.22
2023-03-03T22:20:11.540Z,89.30
2023-03-03T22:21:11.466Z,89.71
2023-03-03T22:43:09.200Z,89.76
2023-03-03T22:44:09.088Z,86.33
2023-03-03T22:45:08.994Z,89.43
2023-03-03T22:46:08.924Z,85.00
2023-03-03T22:47:08.815Z,89.94
2023-03-03T22:48:08.695Z,92.23
2023-03-03T22:49:08.599Z,89.97
2023-03-03T22:50:08.485Z,88.08
2023-03-03T22:51:08.391Z,85.98
2023-03-03T22:52:08.293Z,88.77
2023-03-03T22:53:08.191Z,85.54
2023-03-03T22:54:08.090Z,90.19
2023-03-03T22:55:07.985Z,88.56
2023-03-03T22:56:07.886Z,86.96
2023-03-03T22:57:07.785Z,86.51
